Kezdőlap
METAR-TAF:

METAR-TAF

Repülőterek :

Fort Knox, Kentucky, Amerikai Egyesült Államok

földrajzi szélesség: 37-54N, földrajzi hosszúság: 085-58W, magasság: 230 m

Jelenlegi meteorológiai megfigyelések

A jelentés 34 perccel ezelõtt készült, 08:55 UTC
Észak-északkeleti szél 3 kt
Hőmérséklet 22°C
Páratartalom 73%
Légköri nyomás 1017 hPa
Látótávolság: 16.1 km
Szórványos felhőzet 6000 lábon
Borult 7500 lábon

METAR: KFTK 210855Z AUTO 02003KT 10SM SCT060 OVC075 22/17 A3003 RMK AO2 SLP164 T02150173 57006 $

Idő: 05:29 (09:29 UTC)

Előrejelzés

A jelentés 14 órával és 29 perccel ezelõtt készült, 19:00 UTC
Az előrejelzés 19-én 19 óra UTC és 21-én 01 óra UTC között érvényes
Észak-északkeleti szél 6 kt
Látótávolság: 2211 m
Kevés felhő 5000 lábon
Szórványos felhőzet 20000 lábon

TAF: KFTK 191900Z 1919/2101 02006KT 9999 FEW050 SCT200 QNH3003INS TX28/2019Z TN19/2011Z LAST NO AMDS AFT 2003 NEXT 2211

Meteorológiai megfigyelések és előrejelzések több, mint 4000 repülőtéren (METAR és TAF jelentéseket).

A térképen piros és sárga pontok jelzik az elérhető meteorológiai állomásokat.

Mozgassa az egeret a pont fölött, hogy megjelenjen az állomás neve.

Azután kattintson az időjárási megfigyelések és előrejelzések megtekintéséhez.

A térkép megváltoztatása: kattintson a fekete keresztel jelölt zöld gombra ráközelítéshez, a vonallal jelölt zöld gombra távolításhoz, vagy a zöld nyilakra a szomszédos térképek eléréséhez.


METAR-TAF: